createdAt,value
2022-10-05T00:01:28.032Z,45.54
2022-10-05T00:03:54.455Z,45.92
2022-10-05T00:06:20.781Z,46.25
2022-10-05T00:08:47.224Z,46.17
2022-10-05T00:11:13.701Z,46.15
2022-10-05T00:13:42.152Z,45.84
2022-10-05T00:16:08.936Z,46.15
2022-10-05T00:18:35.296Z,46.07
2022-10-05T00:21:01.607Z,45.75
2022-10-05T00:23:28.123Z,45.72
2022-10-05T00:25:54.539Z,45.84
2022-10-05T00:28:20.949Z,45.54
2022-10-05T00:30:47.575Z,45.68
2022-10-05T00:33:13.898Z,45.84
2022-10-05T00:35:40.240Z,46.01
2022-10-05T00:38:07.226Z,46.19
2022-10-05T00:40:33.556Z,45.96
2022-10-05T00:42:59.943Z,45.95
2022-10-05T00:45:26.397Z,45.84
2022-10-05T00:47:53.133Z,46.11
2022-10-05T00:50:19.530Z,46.07
2022-10-05T00:52:46.079Z,46.24
2022-10-05T00:55:12.444Z,46.10
2022-10-05T00:57:38.888Z,46.08
2022-10-05T01:00:05.445Z,46.14
2022-10-05T01:02:36.495Z,46.25
2022-10-05T01:07:38.711Z,46.25
2022-10-05T01:10:05.097Z,46.16
2022-10-05T01:12:31.709Z,46.26
2022-10-05T01:14:58.290Z,46.20
2022-10-05T01:17:24.616Z,46.13
2022-10-05T01:19:51.027Z,45.97
2022-10-05T01:22:17.722Z,46.26
2022-10-05T01:24:44.086Z,46.27
2022-10-05T01:27:10.512Z,46.34
2022-10-05T01:29:37.067Z,46.34
2022-10-05T01:32:05.914Z,46.61
2022-10-05T01:34:32.452Z,46.29
2022-10-05T01:36:59.073Z,46.15
2022-10-05T01:39:25.616Z,46.32
2022-10-05T01:41:52.259Z,46.32
2022-10-05T01:44:18.659Z,46.39
2022-10-05T01:46:45.404Z,46.48
2022-10-05T01:49:13.469Z,46.49
2022-10-05T01:51:40.020Z,46.32
2022-10-05T01:54:06.415Z,46.52
2022-10-05T01:56:32.977Z,46.12
2022-10-05T01:58:59.849Z,46.62
2022-10-05T02:01:26.358Z,46.45
2022-10-05T02:03:52.778Z,46.34
2022-10-05T02:06:19.252Z,46.40
2022-10-05T02:08:45.725Z,46.61
2022-10-05T02:11:12.068Z,46.80
2022-10-05T02:13:38.486Z,46.51
2022-10-05T02:16:04.959Z,46.73
2022-10-05T02:18:31.409Z,46.54
2022-10-05T02:20:57.936Z,46.79
2022-10-05T02:23:24.379Z,47.24
2022-10-05T02:25:50.765Z,47.18
2022-10-05T02:28:17.370Z,47.46
2022-10-05T02:30:43.804Z,47.83
2022-10-05T02:33:10.204Z,47.50
2022-10-05T02:35:36.568Z,47.10
2022-10-05T02:38:02.988Z,47.00
2022-10-05T02:40:29.386Z,47.33
2022-10-05T02:42:55.912Z,47.20
2022-10-05T02:45:22.385Z,47.28
2022-10-05T02:47:48.757Z,47.81
2022-10-05T02:50:15.204Z,47.45
2022-10-05T02:52:41.569Z,47.21
2022-10-05T02:55:08.245Z,47.45
2022-10-05T02:57:34.691Z,47.28
2022-10-05T03:00:01.123Z,46.88
2022-10-05T03:02:27.763Z,46.87
2022-10-05T03:04:54.370Z,47.16
2022-10-05T03:07:20.916Z,47.31
2022-10-05T03:09:47.460Z,47.33
2022-10-05T03:12:13.886Z,47.84
2022-10-05T03:14:40.272Z,48.47
2022-10-05T03:17:06.617Z,48.31
2022-10-05T03:19:33.143Z,47.74
2022-10-05T03:21:59.706Z,47.43
2022-10-05T03:24:26.090Z,47.82
2022-10-05T03:26:52.451Z,47.58
2022-10-05T03:29:18.775Z,47.78
2022-10-05T03:31:45.348Z,48.11
2022-10-05T03:34:11.867Z,48.19
2022-10-05T03:36:38.411Z,47.78
2022-10-05T03:39:04.790Z,47.73
2022-10-05T03:41:31.250Z,47.51
2022-10-05T03:43:57.575Z,47.98
2022-10-05T03:46:24.005Z,48.29
2022-10-05T03:48:50.683Z,47.90
2022-10-05T03:51:17.088Z,48.09
2022-10-05T03:53:43.420Z,47.80
2022-10-05T03:56:09.750Z,47.80
2022-10-05T03:58:36.099Z,48.15
2022-10-05T04:01:02.457Z,47.87
2022-10-05T04:03:28.888Z,47.82
2022-10-05T04:05:55.281Z,47.73
2022-10-05T04:08:21.692Z,47.69
2022-10-05T04:10:48.108Z,47.61
2022-10-05T04:13:14.640Z,48.24
2022-10-05T04:15:41.157Z,48.22
2022-10-05T04:18:08.317Z,48.55
2022-10-05T04:20:34.675Z,48.59
2022-10-05T04:23:01.102Z,48.94
2022-10-05T04:25:27.739Z,48.83
2022-10-05T04:27:54.230Z,48.57
2022-10-05T04:30:20.573Z,48.52
2022-10-05T04:32:47.154Z,48.28
2022-10-05T04:35:13.505Z,48.73
2022-10-05T04:37:43.221Z,49.05
2022-10-05T04:40:15.339Z,49.21
2022-10-05T04:42:41.688Z,49.22
2022-10-05T04:45:08.058Z,49.03
2022-10-05T04:47:34.498Z,49.25
2022-10-05T04:50:00.833Z,49.21
2022-10-05T04:52:27.631Z,48.89
2022-10-05T04:54:54.302Z,49.21
2022-10-05T04:57:20.750Z,49.02
2022-10-05T04:59:47.117Z,49.11
2022-10-05T05:02:13.684Z,48.80
2022-10-05T05:04:40.036Z,48.76
2022-10-05T05:07:06.625Z,48.83
2022-10-05T05:09:33.357Z,48.84
2022-10-05T05:11:59.949Z,49.04
2022-10-05T05:14:26.525Z,49.65
2022-10-05T05:16:53.101Z,49.37
2022-10-05T05:19:19.444Z,49.52
2022-10-05T05:21:45.926Z,49.16
2022-10-05T05:24:12.656Z,49.37
2022-10-05T05:26:39.236Z,48.65
2022-10-05T05:29:05.823Z,49.27
2022-10-05T05:31:32.553Z,48.78
2022-10-05T05:33:58.949Z,48.63
2022-10-05T05:36:25.337Z,48.48
2022-10-05T05:38:52.406Z,48.42
2022-10-05T05:41:18.970Z,48.80
2022-10-05T05:43:45.446Z,48.30
2022-10-05T05:46:11.830Z,48.78
2022-10-05T05:48:38.456Z,48.28
2022-10-05T05:51:04.899Z,48.38
2022-10-05T05:53:31.465Z,48.49
2022-10-05T05:55:58.103Z,48.81
2022-10-05T05:58:24.671Z,48.81
2022-10-05T06:00:51.309Z,48.67
2022-10-05T06:03:17.725Z,48.67
2022-10-05T06:05:44.172Z,48.66
2022-10-05T06:08:10.580Z,48.72
2022-10-05T06:10:36.987Z,48.88
2022-10-05T06:13:05.391Z,48.64
2022-10-05T06:15:31.892Z,48.64
2022-10-05T06:17:58.261Z,48.77
2022-10-05T06:20:24.628Z,48.66
2022-10-05T06:22:51.167Z,48.58
2022-10-05T06:25:17.600Z,48.61
2022-10-05T06:27:43.928Z,48.46
2022-10-05T06:30:10.337Z,48.02
2022-10-05T06:32:36.771Z,47.94
2022-10-05T06:35:03.162Z,48.11
2022-10-05T06:37:29.648Z,48.22
2022-10-05T06:40:00.783Z,47.85
2022-10-05T06:42:29.742Z,48.10
2022-10-05T06:44:56.359Z,48.08
2022-10-05T06:47:22.737Z,47.89
2022-10-05T06:49:49.151Z,48.24
2022-10-05T06:52:16.141Z,48.11
2022-10-05T06:54:42.551Z,48.07
2022-10-05T06:57:08.958Z,48.10
2022-10-05T06:59:35.419Z,47.90
2022-10-05T07:02:01.905Z,47.94
2022-10-05T07:04:29.217Z,48.17
2022-10-05T07:06:57.768Z,47.83
2022-10-05T07:09:24.158Z,47.72
2022-10-05T07:11:56.376Z,47.45
2022-10-05T07:14:25.085Z,47.46
2022-10-05T07:16:51.461Z,47.23
2022-10-05T07:19:17.902Z,47.62
2022-10-05T07:21:44.997Z,47.35
2022-10-05T07:24:11.795Z,47.27
2022-10-05T07:26:38.275Z,47.70
2022-10-05T07:29:04.674Z,47.42
2022-10-05T07:31:31.033Z,47.29
2022-10-05T07:33:57.427Z,47.18
2022-10-05T07:36:23.979Z,47.14
2022-10-05T07:38:50.341Z,47.30
2022-10-05T07:41:16.752Z,46.81
2022-10-05T07:46:30.445Z,46.76
2022-10-05T07:48:57.199Z,46.05
2022-10-05T07:51:23.720Z,46.91
2022-10-05T07:53:50.098Z,46.07
2022-10-05T07:56:16.658Z,47.19
2022-10-05T07:58:43.015Z,46.62
2022-10-05T08:01:09.545Z,46.26
2022-10-05T08:03:36.405Z,46.76
2022-10-05T08:06:02.893Z,46.42
2022-10-05T08:08:29.395Z,47.81
2022-10-05T08:10:56.110Z,47.73
2022-10-05T08:13:22.805Z,46.38
2022-10-05T08:15:49.213Z,47.41
2022-10-05T08:18:16.202Z,46.94
2022-10-05T08:20:42.609Z,46.81
2022-10-05T08:23:09.187Z,46.61
2022-10-05T08:25:35.910Z,46.34
2022-10-05T08:28:02.331Z,45.66
2022-10-05T08:30:28.729Z,44.79
2022-10-05T08:32:55.358Z,44.64
2022-10-05T08:35:21.830Z,44.25
2022-10-05T08:37:48.326Z,44.93
2022-10-05T08:40:14.722Z,43.42
2022-10-05T08:42:41.173Z,44.07
2022-10-05T08:45:07.716Z,44.08
2022-10-05T08:47:34.223Z,43.15
2022-10-05T08:50:00.750Z,43.86
2022-10-05T08:52:27.103Z,43.66
2022-10-05T08:54:53.677Z,43.60
2022-10-05T08:57:20.272Z,43.61
2022-10-05T08:59:46.775Z,43.55
2022-10-05T09:02:13.485Z,42.96
2022-10-05T09:04:39.889Z,42.91
2022-10-05T09:07:06.430Z,42.63
2022-10-05T09:09:32.971Z,42.57
2022-10-05T09:11:59.309Z,42.71
2022-10-05T09:14:25.650Z,43.03
2022-10-05T09:16:52.214Z,42.64
2022-10-05T09:19:18.684Z,42.43
2022-10-05T09:21:45.515Z,42.41
2022-10-05T09:24:12.276Z,42.26
2022-10-05T09:26:38.895Z,42.11
2022-10-05T09:29:05.208Z,42.03
2022-10-05T09:31:32.202Z,42.21
2022-10-05T09:33:58.626Z,42.20
2022-10-05T09:36:25.032Z,41.81
2022-10-05T09:38:52.173Z,42.56
2022-10-05T09:41:18.562Z,42.59
2022-10-05T09:43:44.946Z,42.62
2022-10-05T09:46:11.694Z,42.41
2022-10-05T09:48:38.193Z,42.39
2022-10-05T09:51:04.593Z,41.58
2022-10-05T09:53:31.182Z,41.48
2022-10-05T09:55:57.627Z,41.99
2022-10-05T09:58:24.316Z,41.16
2022-10-05T10:00:58.835Z,41.70
2022-10-05T10:03:35.747Z,41.85
2022-10-05T10:06:02.365Z,40.91
2022-10-05T10:08:29.353Z,41.40
2022-10-05T10:10:55.827Z,41.10
2022-10-05T10:13:22.550Z,41.26
2022-10-05T10:15:49.331Z,41.81
2022-10-05T10:18:15.780Z,41.75
2022-10-05T10:20:42.260Z,41.95
2022-10-05T10:23:08.725Z,41.56
2022-10-05T10:25:35.149Z,41.96
2022-10-05T10:28:01.770Z,41.69
2022-10-05T10:30:28.909Z,41.94
2022-10-05T10:32:56.463Z,41.69
2022-10-05T10:35:22.967Z,41.80
2022-10-05T10:37:49.354Z,41.59
2022-10-05T10:40:15.812Z,41.52
2022-10-05T10:42:42.408Z,41.64
2022-10-05T10:45:08.783Z,41.46
2022-10-05T10:47:35.113Z,40.89
2022-10-05T10:50:01.676Z,41.39
2022-10-05T10:52:28.138Z,41.23
2022-10-05T10:54:54.532Z,41.43
2022-10-05T10:57:21.058Z,40.94
2022-10-05T10:59:47.428Z,41.36
2022-10-05T11:02:13.834Z,41.74
2022-10-05T11:04:40.424Z,41.45
2022-10-05T11:07:06.777Z,41.72
2022-10-05T11:09:33.178Z,41.83
2022-10-05T11:11:59.668Z,42.68
2022-10-05T11:14:26.085Z,43.06
2022-10-05T11:16:52.425Z,43.42
2022-10-05T11:19:18.751Z,43.00
2022-10-05T11:21:45.100Z,43.09
2022-10-05T11:24:11.448Z,42.92
2022-10-05T11:26:37.902Z,43.03
2022-10-05T11:29:04.217Z,43.03
2022-10-05T11:31:30.709Z,42.59
2022-10-05T11:33:57.329Z,41.74
2022-10-05T11:36:23.691Z,42.73
2022-10-05T11:38:50.081Z,42.48
2022-10-05T11:41:16.615Z,42.99
2022-10-05T11:43:43.002Z,42.79
2022-10-05T11:46:09.369Z,42.69
2022-10-05T11:48:36.000Z,42.28
2022-10-05T11:51:02.363Z,42.01
2022-10-05T11:53:28.684Z,41.85
2022-10-05T11:55:55.217Z,41.95
2022-10-05T11:58:21.605Z,41.90
2022-10-05T12:00:47.948Z,41.80
2022-10-05T12:03:14.481Z,41.53
2022-10-05T12:05:40.974Z,41.77
2022-10-05T12:08:07.289Z,41.11
2022-10-05T12:10:33.906Z,40.80
2022-10-05T12:13:00.741Z,41.07
2022-10-05T12:15:27.507Z,41.25
2022-10-05T12:17:53.929Z,41.38
2022-10-05T12:20:20.269Z,40.77
2022-10-05T12:22:46.607Z,41.16
2022-10-05T12:25:13.107Z,41.33
2022-10-05T12:27:39.473Z,41.21
2022-10-05T12:30:05.776Z,41.38
2022-10-05T12:32:32.196Z,41.45
2022-10-05T12:35:01.870Z,41.52
2022-10-05T12:37:28.449Z,41.03
2022-10-05T12:39:54.999Z,41.31
2022-10-05T12:42:21.338Z,41.55
2022-10-05T12:44:47.734Z,42.00
2022-10-05T12:47:14.228Z,42.15
2022-10-05T12:49:40.701Z,42.04
2022-10-05T12:52:07.065Z,42.52
2022-10-05T12:54:33.598Z,42.51
2022-10-05T12:56:59.950Z,42.66
2022-10-05T12:59:26.373Z,42.33
2022-10-05T13:01:53.061Z,42.41
2022-10-05T13:04:19.538Z,42.18
2022-10-05T13:06:45.885Z,42.00
2022-10-05T13:09:12.647Z,41.82
2022-10-05T13:11:39.050Z,41.65
2022-10-05T13:14:05.869Z,41.06
2022-10-05T13:16:32.953Z,41.33
2022-10-05T13:18:59.521Z,42.11
2022-10-05T13:21:26.808Z,41.10
2022-10-05T13:23:57.230Z,42.04
2022-10-05T13:26:24.022Z,41.19
2022-10-05T13:28:50.638Z,41.94
2022-10-05T13:31:17.063Z,42.27
2022-10-05T13:33:43.663Z,41.37
2022-10-05T13:36:10.358Z,41.91
2022-10-05T13:38:37.321Z,41.83
2022-10-05T13:41:03.900Z,42.22
2022-10-05T13:43:30.412Z,42.15
2022-10-05T13:45:57.437Z,42.14
2022-10-05T13:48:23.871Z,42.24
2022-10-05T13:50:50.405Z,42.45
2022-10-05T13:53:17.256Z,42.31
2022-10-05T13:55:43.606Z,42.78
2022-10-05T13:58:10.103Z,42.18
2022-10-05T14:00:36.634Z,42.10
2022-10-05T14:03:03.227Z,42.85
2022-10-05T14:05:29.627Z,43.48
2022-10-05T14:07:56.291Z,42.86
2022-10-05T14:10:22.759Z,43.12
2022-10-05T14:12:49.132Z,43.32
2022-10-05T14:15:15.861Z,43.13
2022-10-05T14:17:42.269Z,43.39
2022-10-05T14:20:08.907Z,42.60
2022-10-05T14:22:35.491Z,42.78
2022-10-05T14:25:02.193Z,42.91
2022-10-05T14:27:28.611Z,42.49
2022-10-05T14:29:55.302Z,42.37
2022-10-05T14:32:21.640Z,42.13
2022-10-05T14:34:48.087Z,42.69
2022-10-05T14:37:14.773Z,42.31
2022-10-05T14:39:41.448Z,42.53
2022-10-05T14:42:08.202Z,42.28
2022-10-05T14:44:34.728Z,42.62
2022-10-05T14:47:01.187Z,42.87
2022-10-05T14:49:27.660Z,42.60
2022-10-05T14:51:54.019Z,42.96
2022-10-05T14:54:20.453Z,43.03
2022-10-05T14:56:46.981Z,42.84
2022-10-05T14:59:13.558Z,42.88
2022-10-05T15:01:39.960Z,43.30
2022-10-05T15:04:06.438Z,43.40
2022-10-05T15:06:33.295Z,43.33
2022-10-05T15:08:59.746Z,43.27
2022-10-05T15:11:26.198Z,43.80
2022-10-05T15:13:52.725Z,43.67
2022-10-05T15:16:19.557Z,43.57
2022-10-05T15:18:46.388Z,42.97
2022-10-05T15:23:39.135Z,43.25
2022-10-05T15:26:05.484Z,43.25
2022-10-05T15:28:31.930Z,43.28
2022-10-05T15:30:58.379Z,43.07
2022-10-05T15:33:24.859Z,43.33
2022-10-05T15:35:51.570Z,43.46
2022-10-05T15:38:18.041Z,44.26
2022-10-05T15:40:44.505Z,44.30
2022-10-05T15:43:10.978Z,44.14
2022-10-05T15:45:37.767Z,44.13
2022-10-05T15:48:04.171Z,43.95
2022-10-05T15:50:30.630Z,44.62
2022-10-05T15:52:57.008Z,44.94
2022-10-05T15:55:23.392Z,44.80
2022-10-05T15:57:49.907Z,45.22
2022-10-05T16:00:16.331Z,45.84
2022-10-05T16:02:43.032Z,45.45
2022-10-05T16:05:09.606Z,45.32
2022-10-05T16:07:35.983Z,45.61
2022-10-05T16:10:02.314Z,45.34
2022-10-05T16:12:28.797Z,45.65
2022-10-05T16:14:55.321Z,45.90
2022-10-05T16:17:22.021Z,45.78
2022-10-05T16:19:48.631Z,46.27
2022-10-05T16:22:15.099Z,46.66
2022-10-05T16:24:41.473Z,46.27
2022-10-05T16:27:08.076Z,46.24
2022-10-05T16:29:34.540Z,46.17
2022-10-05T16:32:00.925Z,46.13
2022-10-05T16:34:27.651Z,46.68
2022-10-05T16:36:54.069Z,46.62
2022-10-05T16:39:23.336Z,46.35
2022-10-05T16:41:49.990Z,46.76
2022-10-05T16:44:16.749Z,46.84
2022-10-05T16:46:43.302Z,46.52
2022-10-05T16:49:10.079Z,46.99
2022-10-05T16:51:36.568Z,46.53
2022-10-05T16:54:02.965Z,46.57
2022-10-05T16:56:29.652Z,46.63
2022-10-05T16:58:56.033Z,46.96
2022-10-05T17:01:22.382Z,47.15
2022-10-05T17:03:49.009Z,46.77
2022-10-05T17:06:15.369Z,46.50
2022-10-05T17:08:42.346Z,46.58
2022-10-05T17:11:10.531Z,46.01
2022-10-05T17:13:39.898Z,46.41
2022-10-05T17:16:08.446Z,46.48
2022-10-05T17:18:35.366Z,46.36
2022-10-05T17:21:01.827Z,46.53
2022-10-05T17:23:28.237Z,46.52
2022-10-05T17:25:54.859Z,46.76
2022-10-05T17:28:21.337Z,46.07
2022-10-05T17:30:47.885Z,46.41
2022-10-05T17:33:14.805Z,46.05
2022-10-05T17:35:41.190Z,46.19
2022-10-05T17:38:07.577Z,46.44
2022-10-05T17:40:34.341Z,46.85
2022-10-05T17:43:00.871Z,46.86
2022-10-05T17:45:27.265Z,46.50
2022-10-05T17:47:53.763Z,46.28
2022-10-05T17:50:20.209Z,46.53
2022-10-05T17:52:46.619Z,46.60
2022-10-05T17:55:13.052Z,46.75
2022-10-05T17:57:39.541Z,46.96
2022-10-05T18:00:05.924Z,46.98
2022-10-05T18:02:36.292Z,46.71
2022-10-05T18:05:03.580Z,46.99
2022-10-05T18:07:30.029Z,46.39
2022-10-05T18:09:57.578Z,46.04
2022-10-05T18:12:24.114Z,46.73
2022-10-05T18:14:50.481Z,46.25
2022-10-05T18:17:17.151Z,46.28
2022-10-05T18:19:43.699Z,46.66
2022-10-05T18:22:10.280Z,46.78
2022-10-05T18:24:37.010Z,46.88
2022-10-05T18:27:03.679Z,46.55
2022-10-05T18:29:30.178Z,46.35
2022-10-05T18:31:56.619Z,46.43
2022-10-05T18:34:23.049Z,46.93
2022-10-05T18:36:49.689Z,46.55
2022-10-05T18:39:16.544Z,46.36
2022-10-05T18:41:43.513Z,46.90
2022-10-05T18:44:10.062Z,46.38
2022-10-05T18:46:37.065Z,46.60
2022-10-05T18:49:04.046Z,46.77
2022-10-05T18:51:30.828Z,46.76
2022-10-05T18:53:58.069Z,47.43
2022-10-05T18:56:24.657Z,46.72
2022-10-05T18:58:56.547Z,46.81
2022-10-05T19:01:24.092Z,46.60
2022-10-05T19:03:51.117Z,46.90
2022-10-05T19:06:18.016Z,46.78
2022-10-05T19:08:45.071Z,46.59
2022-10-05T19:11:12.603Z,46.49
2022-10-05T19:13:39.395Z,46.54
2022-10-05T19:16:06.319Z,46.42
2022-10-05T19:18:33.055Z,46.34
2022-10-05T19:21:00.199Z,46.24
2022-10-05T19:23:26.991Z,46.14
2022-10-05T19:25:53.939Z,46.20
2022-10-05T19:28:20.553Z,46.55
2022-10-05T19:30:47.386Z,46.50
2022-10-05T19:33:13.904Z,46.18
2022-10-05T19:35:40.277Z,46.30
2022-10-05T19:38:09.613Z,46.02
2022-10-05T19:40:38.253Z,46.59
2022-10-05T19:43:04.653Z,47.06
2022-10-05T19:45:31.126Z,46.59
2022-10-05T19:47:57.532Z,46.49
2022-10-05T19:50:23.929Z,47.02
2022-10-05T19:52:50.476Z,46.96
2022-10-05T19:55:17.192Z,46.75
2022-10-05T19:57:43.663Z,46.55
2022-10-05T20:00:10.650Z,46.47
2022-10-05T20:02:41.782Z,47.00
2022-10-05T20:05:08.862Z,46.83
2022-10-05T20:07:35.857Z,46.75
2022-10-05T20:10:02.334Z,46.78
2022-10-05T20:12:28.899Z,46.90
2022-10-05T20:14:59.225Z,47.17
2022-10-05T20:17:26.084Z,46.77
2022-10-05T20:19:52.573Z,47.04
2022-10-05T20:22:19.088Z,46.85
2022-10-05T20:24:45.579Z,46.96
2022-10-05T20:27:15.712Z,47.03
2022-10-05T20:29:42.386Z,46.77
2022-10-05T20:32:08.877Z,46.97
2022-10-05T20:34:36.735Z,47.30
2022-10-05T20:37:03.254Z,47.04
2022-10-05T20:39:29.627Z,47.55
2022-10-05T20:41:56.118Z,47.06
2022-10-05T20:44:22.681Z,47.74
2022-10-05T20:46:49.148Z,48.52
2022-10-05T20:49:15.459Z,49.01
2022-10-05T20:51:41.884Z,48.77
2022-10-05T20:54:08.332Z,48.51
2022-10-05T20:56:34.758Z,48.39
2022-10-05T20:59:01.249Z,48.12
2022-10-05T21:01:27.695Z,48.17
2022-10-05T21:03:54.111Z,48.29
2022-10-05T21:06:20.523Z,47.80
2022-10-05T21:08:46.942Z,47.96
2022-10-05T21:11:13.563Z,48.13
2022-10-05T21:13:40.476Z,47.87
2022-10-05T21:16:06.904Z,47.93
2022-10-05T21:18:33.307Z,47.87
2022-10-05T21:21:02.224Z,48.14
2022-10-05T21:23:28.904Z,48.35
2022-10-05T21:25:55.276Z,48.43
2022-10-05T21:28:22.728Z,48.29
2022-10-05T21:30:49.386Z,47.96
2022-10-05T21:33:15.916Z,48.24
2022-10-05T21:35:42.645Z,48.40
2022-10-05T21:38:09.434Z,48.63
2022-10-05T21:40:35.828Z,48.45
2022-10-05T21:43:02.279Z,49.15
2022-10-05T21:45:28.987Z,49.43
2022-10-05T21:47:55.615Z,49.31
2022-10-05T21:50:22.022Z,49.12
2022-10-05T21:52:48.369Z,49.32
2022-10-05T21:55:14.772Z,48.97
2022-10-05T21:57:41.416Z,49.04
2022-10-05T22:00:07.954Z,48.89
2022-10-05T22:02:34.299Z,49.09
2022-10-05T22:05:00.842Z,48.74
2022-10-05T22:07:27.328Z,49.07
2022-10-05T22:09:53.735Z,48.63
2022-10-05T22:12:20.384Z,48.63
2022-10-05T22:14:47.163Z,48.57
2022-10-05T22:17:13.729Z,49.28
2022-10-05T22:19:40.214Z,49.32
2022-10-05T22:22:11.145Z,49.62
2022-10-05T22:24:38.909Z,50.17
2022-10-05T22:27:05.358Z,50.16
2022-10-05T22:29:31.824Z,49.88
2022-10-05T22:31:58.273Z,49.51
2022-10-05T22:34:24.830Z,48.92
2022-10-05T22:36:51.239Z,49.15
2022-10-05T22:39:17.577Z,49.20
2022-10-05T22:41:43.997Z,49.68
2022-10-05T22:44:10.346Z,49.48
2022-10-05T22:46:36.663Z,49.35
2022-10-05T22:49:03.426Z,49.54
2022-10-05T22:51:29.929Z,49.46
2022-10-05T22:53:56.270Z,49.86
2022-10-05T22:56:22.809Z,49.57
2022-10-05T22:58:49.167Z,49.81
2022-10-05T23:01:15.578Z,49.89
2022-10-05T23:03:42.019Z,49.76
2022-10-05T23:06:08.419Z,50.28
2022-10-05T23:08:34.957Z,50.13
2022-10-05T23:11:01.516Z,49.74
2022-10-05T23:13:27.862Z,49.76
2022-10-05T23:15:54.488Z,49.74
2022-10-05T23:18:20.968Z,49.64
2022-10-05T23:20:47.351Z,49.26
2022-10-05T23:23:13.799Z,49.18
2022-10-05T23:25:40.261Z,49.09
2022-10-05T23:28:06.811Z,49.32
2022-10-05T23:30:33.269Z,50.53
2022-10-05T23:32:59.801Z,50.29
2022-10-05T23:35:26.142Z,49.99
2022-10-05T23:37:52.451Z,49.96
2022-10-05T23:40:18.821Z,49.87
2022-10-05T23:42:45.161Z,49.47
2022-10-05T23:45:11.665Z,49.70
2022-10-05T23:47:38.247Z,49.34
2022-10-05T23:50:04.637Z,49.42
2022-10-05T23:52:31.079Z,49.84
2022-10-05T23:54:57.752Z,50.21
2022-10-05T23:57:27.240Z,50.17
2022-10-05T23:59:53.663Z,51.26
